createdAt,value
2022-11-16T07:40:27.239Z,91.28417969
2022-11-16T07:41:27.663Z,91.28417969
2022-11-16T07:42:28.401Z,92.50488281
2022-11-16T07:43:29.064Z,92.50488281
2022-11-16T07:44:30.458Z,92.50488281
2022-11-16T07:45:30.917Z,92.40112305
2022-11-16T07:46:46.392Z,92.40112305
2022-11-16T07:47:31.983Z,92.29736328
2022-11-16T07:48:32.962Z,92.09594727
2022-11-16T07:49:33.231Z,91.88842773
2022-11-16T07:50:33.686Z,91.78466797
2022-11-16T07:51:34.154Z,91.78466797
2022-11-16T07:52:34.610Z,91.78466797
2022-11-16T07:53:35.368Z,91.68701172
2022-11-16T07:54:36.769Z,91.78466797
2022-11-16T07:55:37.919Z,91.93115234
2022-11-16T07:56:38.452Z,92.03491211
2022-11-16T07:57:38.970Z,92.03491211
2022-11-16T07:58:39.557Z,92.13867188
2022-11-16T07:59:40.234Z,92.23632813
2022-11-16T08:00:40.974Z,92.34008789
2022-11-16T08:01:41.668Z,92.44384766
2022-11-16T08:02:42.099Z,92.50488281
2022-11-16T08:03:42.559Z,92.60253906
2022-11-16T08:04:44.081Z,92.60253906
2022-11-16T08:05:44.800Z,92.70629883
2022-11-16T08:06:45.473Z,92.91381836
2022-11-16T08:07:45.982Z,93.01147461
2022-11-16T08:08:47.405Z,93.01147461
2022-11-16T08:09:47.947Z,93.01147461
2022-11-16T08:10:48.495Z,93.01147461
2022-11-16T08:11:49.079Z,92.60253906
2022-11-16T08:12:49.642Z,91.88842773
2022-11-16T08:13:50.139Z,91.58325195
2022-11-16T08:14:50.626Z,91.47949219
2022-11-16T08:15:51.210Z,91.62597656
2022-11-16T08:16:51.834Z,91.72973633
2022-11-16T08:18:22.536Z,91.62597656
2022-11-16T08:19:53.234Z,91.72973633
2022-11-16T08:20:53.718Z,91.87011719
2022-11-16T08:21:54.461Z,91.66870117
2022-11-16T08:22:55.103Z,91.87011719
2022-11-16T08:24:26.698Z,92.01660156
2022-11-16T08:25:27.162Z,91.9128418
2022-11-16T08:26:28.140Z,92.12036133
2022-11-16T08:27:28.826Z,92.22412109
2022-11-16T08:28:29.498Z,92.42553711
2022-11-16T08:29:30.151Z,92.63305664
2022-11-16T08:30:30.629Z,92.73681641
2022-11-16T08:31:31.169Z,92.73681641
2022-11-16T08:32:31.778Z,92.83447266
2022-11-16T08:33:32.523Z,92.98095703
2022-11-16T08:34:33.190Z,93.0847168
2022-11-16T08:35:34.780Z,92.93823242
2022-11-16T08:36:35.235Z,92.87719727
2022-11-16T08:37:35.873Z,92.83447266
2022-11-16T08:38:36.530Z,92.83447266
2022-11-16T08:39:37.140Z,92.83447266
2022-11-16T08:40:37.756Z,92.83447266
2022-11-16T08:41:38.240Z,92.98095703
2022-11-16T08:42:43.481Z,93.18847656
2022-11-16T08:43:39.417Z,93.24951172
2022-11-16T08:44:39.967Z,93.34716797
2022-11-16T08:45:41.258Z,93.45092773
2022-11-16T08:46:41.819Z,93.5546875
2022-11-16T08:47:42.287Z,93.5546875
2022-11-16T08:48:43.649Z,93.65844727
2022-11-16T08:49:49.357Z,93.5546875
2022-11-16T08:51:10.487Z,93.61572266
2022-11-16T08:51:45.711Z,93.61572266
2022-11-16T08:52:46.164Z,93.61572266
2022-11-16T08:53:47.153Z,93.61572266
2022-11-16T08:54:47.670Z,93.61572266
2022-11-16T08:55:48.644Z,93.56689453
2022-11-16T08:56:49.125Z,93.56689453
2022-11-16T08:57:49.620Z,93.46923828
2022-11-16T08:58:55.252Z,93.56689453
2022-11-16T08:59:50.517Z,93.56689453
2022-11-16T09:00:51.005Z,93.56689453
2022-11-16T09:01:51.613Z,93.42651367
2022-11-16T09:02:51.991Z,93.21899414
2022-11-16T09:03:52.515Z,93.11523438
2022-11-16T09:04:52.990Z,93.11523438
2022-11-16T09:05:53.491Z,93.01147461
2022-11-16T09:06:54.005Z,93.01147461
2022-11-16T09:07:55.390Z,92.87109375
2022-11-16T09:09:25.605Z,92.76733398
2022-11-16T09:10:26.177Z,92.55981445
2022-11-16T09:11:26.704Z,92.25463867
2022-11-16T09:12:27.183Z,92.15087891
2022-11-16T09:13:27.722Z,92.15087891
2022-11-16T09:14:28.130Z,92.25463867
2022-11-16T09:15:29.428Z,92.25463867
2022-11-16T09:16:29.903Z,92.25463867
2022-11-16T09:17:30.427Z,92.21191406
2022-11-16T09:18:31.223Z,92.21191406
2022-11-16T09:19:32.253Z,92.21191406
2022-11-16T09:20:33.809Z,92.1081543
2022-11-16T09:21:34.472Z,92.51708984
2022-11-16T09:22:35.136Z,92.88330078
2022-11-16T09:23:35.878Z,92.88330078
2022-11-16T09:24:37.284Z,92.47436523
2022-11-16T09:25:38.650Z,92.27294922
2022-11-16T09:26:39.119Z,91.91894531
2022-11-16T09:27:39.717Z,91.7175293
2022-11-16T09:28:55.349Z,91.41235352
2022-11-16T09:29:40.980Z,91.10717773
2022-11-16T09:30:41.525Z,91.00341797
2022-11-16T09:31:41.994Z,90.85693359
2022-11-16T09:32:42.459Z,90.65551758
2022-11-16T09:33:42.983Z,90.44799805
2022-11-16T09:34:44.093Z,90.3503418
2022-11-16T09:35:43.885Z,90.14282227
2022-11-16T09:36:44.334Z,90.0390625
2022-11-16T09:37:44.777Z,89.94140625
2022-11-16T09:39:17.830Z,89.79492188
2022-11-16T09:39:45.736Z,88.1652832
2022-11-16T09:40:46.454Z,87.13989258
2022-11-16T09:41:46.945Z,87.04223633
2022-11-16T09:42:47.383Z,86.93847656
2022-11-16T09:43:47.920Z,86.8347168
2022-11-16T09:44:48.542Z,86.0168457
2022-11-16T09:45:49.903Z,85.20507813
2022-11-16T09:46:50.553Z,85.40649414
2022-11-16T09:47:51.024Z,85.51025391
2022-11-16T09:48:51.483Z,85.51025391
2022-11-16T09:49:51.971Z,84.63134766
2022-11-16T09:50:53.312Z,84.32617188
2022-11-16T09:51:53.902Z,85.0402832
2022-11-16T09:53:24.837Z,84.52758789
2022-11-16T09:54:26.131Z,84.32617188
2022-11-16T09:55:27.423Z,84.63134766
2022-11-16T09:56:28.100Z,84.73510742
2022-11-16T09:57:28.857Z,84.83276367
2022-11-16T09:58:31.307Z,84.93652344
2022-11-16T09:59:29.680Z,84.73510742
2022-11-16T10:00:30.221Z,84.93652344
2022-11-16T10:01:31.419Z,84.22241211
2022-11-16T10:02:32.270Z,84.22241211
2022-11-16T10:03:33.139Z,83.91723633
2022-11-16T10:04:33.139Z,83.81347656
2022-11-16T10:05:33.578Z,84.01489258
2022-11-16T10:06:34.921Z,84.52758789
2022-11-16T10:07:35.619Z,84.63134766
2022-11-16T10:08:36.427Z,84.83276367
2022-11-16T10:09:36.712Z,84.93652344
2022-11-16T10:10:37.150Z,85.0402832
2022-11-16T10:11:37.623Z,85.13793945
2022-11-16T10:12:38.278Z,85.44921875
2022-11-16T10:13:38.880Z,85.75439453
2022-11-16T10:14:39.462Z,85.8581543
2022-11-16T10:15:40.921Z,85.95581055
2022-11-16T10:16:41.426Z,86.05957031
2022-11-16T10:17:42.090Z,86.26098633
2022-11-16T10:18:42.663Z,86.46850586
2022-11-16T10:19:43.805Z,86.46850586
2022-11-16T10:20:44.406Z,85.546875
2022-11-16T10:21:45.036Z,86.05957031
2022-11-16T10:22:46.479Z,86.16333008
2022-11-16T10:23:47.321Z,86.26098633
2022-11-16T10:24:48.810Z,85.8581543
2022-11-16T10:25:50.006Z,85.65063477
2022-11-16T10:26:50.460Z,86.05957031
2022-11-16T10:27:50.911Z,86.16333008
2022-11-16T10:28:51.504Z,86.26098633
2022-11-16T10:29:52.417Z,85.24169922
2022-11-16T10:30:53.134Z,85.44921875
2022-11-16T10:32:24.261Z,85.546875
2022-11-16T10:33:24.741Z,85.44921875
2022-11-16T10:34:25.194Z,85.34545898
2022-11-16T10:35:25.679Z,85.65063477
2022-11-16T10:36:26.773Z,85.65063477
2022-11-16T10:37:27.253Z,85.75439453
2022-11-16T10:38:27.658Z,85.546875
2022-11-16T10:39:28.123Z,85.79101563
2022-11-16T10:40:28.825Z,85.69335938
2022-11-16T10:41:29.668Z,85.58959961
2022-11-16T10:42:30.454Z,85.79101563
2022-11-16T10:43:31.071Z,85.99853516
2022-11-16T10:44:31.393Z,85.99853516
2022-11-16T10:45:31.979Z,86.19995117
2022-11-16T10:46:33.348Z,85.99853516
2022-11-16T10:47:36.069Z,86.19995117
2022-11-16T10:48:34.780Z,86.4074707
2022-11-16T10:49:35.518Z,86.4074707
2022-11-16T10:50:36.173Z,86.51123047
2022-11-16T10:51:36.846Z,86.60888672
2022-11-16T10:52:37.724Z,86.71264648
2022-11-16T10:53:39.004Z,86.9140625
2022-11-16T10:54:44.047Z,86.9140625
2022-11-16T10:55:40.980Z,86.9140625
2022-11-16T10:56:41.453Z,86.81640625
2022-11-16T10:57:42.109Z,86.71264648
2022-11-16T10:58:42.764Z,86.71264648
2022-11-16T10:59:43.398Z,85.89477539
2022-11-16T11:00:44.288Z,85.69335938
2022-11-16T11:01:44.652Z,85.79101563
2022-11-16T11:02:45.163Z,85.69335938
2022-11-16T11:03:45.589Z,86.10229492
2022-11-16T11:04:46.030Z,85.89477539
2022-11-16T11:05:47.540Z,85.89477539
2022-11-16T11:06:48.126Z,85.99853516
2022-11-16T11:07:48.508Z,85.8581543
2022-11-16T11:08:49.126Z,86.05957031
2022-11-16T11:09:50.469Z,86.05957031
2022-11-16T11:10:51.167Z,85.34545898
2022-11-16T11:11:51.642Z,84.83276367
2022-11-16T11:12:52.481Z,84.32617188
2022-11-16T11:13:53.439Z,80.85327148
2022-11-16T11:15:26.498Z,81.15844727
2022-11-16T11:16:25.807Z,80.40771484
2022-11-16T11:17:26.521Z,80.10253906
2022-11-16T11:18:27.096Z,80.20019531
2022-11-16T11:19:27.562Z,79.58984375
2022-11-16T11:20:28.228Z,79.58984375
2022-11-16T11:21:28.874Z,79.38842773
2022-11-16T11:22:29.678Z,79.28466797
2022-11-16T11:23:30.376Z,79.44946289
2022-11-16T11:24:44.465Z,79.85839844
2022-11-16T11:25:31.106Z,80.06591797
2022-11-16T11:26:36.596Z,79.85839844
2022-11-16T11:27:33.120Z,79.9621582
2022-11-16T11:28:33.862Z,80.06591797
2022-11-16T11:29:34.323Z,78.125
2022-11-16T11:30:34.802Z,77.41088867
2022-11-16T11:31:35.275Z,77.58178711
2022-11-16T11:32:36.132Z,77.27050781
2022-11-16T11:33:37.286Z,76.86767578
2022-11-16T11:34:37.360Z,76.19018555
2022-11-16T11:35:37.812Z,76.76391602
2022-11-16T11:36:39.143Z,76.5625
2022-11-16T11:37:39.734Z,76.76391602
2022-11-16T11:38:40.524Z,77.17285156
2022-11-16T11:39:41.129Z,77.37426758
2022-11-16T11:40:41.545Z,77.88696289
2022-11-16T11:41:42.648Z,77.0690918
2022-11-16T11:42:43.369Z,75.03051758
2022-11-16T11:43:44.075Z,75.23193359
2022-11-16T11:44:44.696Z,75.64086914
2022-11-16T11:45:45.220Z,75.43945313
2022-11-16T11:47:35.150Z,75.43945313
2022-11-16T11:47:58.164Z,75.13427734
2022-11-16T11:48:47.579Z,75.13427734
2022-11-16T11:49:48.318Z,75.54321289
2022-11-16T11:50:48.927Z,75.64086914
2022-11-16T11:51:49.381Z,74.82910156
2022-11-16T11:52:50.407Z,75.13427734
2022-11-16T11:53:51.114Z,75.23193359
2022-11-16T11:54:51.779Z,75.84838867
2022-11-16T11:55:52.886Z,75.74462891
2022-11-16T11:57:24.437Z,75.03051758
2022-11-16T11:58:24.851Z,75.13427734
2022-11-16T11:59:25.497Z,74.62158203
2022-11-16T12:00:26.155Z,74.11499023
2022-11-16T12:01:26.788Z,73.80981445
2022-11-16T12:02:27.271Z,74.51782227
2022-11-16T12:03:28.659Z,74.42016602
2022-11-16T12:04:29.254Z,74.51782227
2022-11-16T12:05:29.775Z,73.70605469
2022-11-16T12:06:31.013Z,74.21264648
2022-11-16T12:07:31.518Z,74.99389648
2022-11-16T12:08:31.926Z,75.20141602
2022-11-16T12:09:32.492Z,74.79248047
2022-11-16T12:10:33.052Z,74.18212891
2022-11-16T12:11:33.720Z,73.36425781
2022-11-16T12:12:34.403Z,73.77319336
2022-11-16T12:13:35.281Z,73.57177734
2022-11-16T12:14:35.419Z,73.46801758
2022-11-16T12:15:35.886Z,72.85766602
2022-11-16T12:16:37.250Z,72.85766602
2022-11-16T12:17:37.880Z,72.75390625
2022-11-16T12:18:38.999Z,72.85766602
2022-11-16T12:19:39.483Z,72.03979492
2022-11-16T12:20:39.948Z,72.44873047
2022-11-16T12:21:40.393Z,72.85766602
2022-11-16T12:22:41.221Z,72.95532227
2022-11-16T12:23:41.913Z,73.33374023
2022-11-16T12:24:43.221Z,72.82104492
2022-11-16T12:25:43.686Z,72.61962891
2022-11-16T12:26:44.944Z,72.21069336
2022-11-16T12:27:45.736Z,72.21069336
2022-11-16T12:28:50.848Z,72.41210938
2022-11-16T12:29:47.027Z,72.27783203
2022-11-16T12:30:48.467Z,71.77124023
2022-11-16T12:31:48.937Z,71.36230469
2022-11-16T12:32:49.550Z,71.36230469
2022-11-16T12:33:50.193Z,71.5637207
2022-11-16T12:34:50.897Z,71.86889648
2022-11-16T12:35:51.488Z,70.92285156
2022-11-16T12:37:22.946Z,70.92285156
2022-11-16T12:38:26.217Z,70.8190918
2022-11-16T12:39:24.075Z,70.20874023
2022-11-16T12:40:24.731Z,70.10498047
2022-11-16T12:41:25.324Z,69.97070313
2022-11-16T12:42:25.733Z,69.66552734
2022-11-16T12:43:26.332Z,69.97070313
2022-11-16T12:44:26.792Z,70.07446289
2022-11-16T12:45:32.004Z,70.07446289
2022-11-16T12:46:29.012Z,70.3125
2022-11-16T12:47:29.491Z,70.8190918
2022-11-16T12:48:29.992Z,71.22802734
2022-11-16T12:49:30.510Z,70.61767578
2022-11-16T12:50:31.283Z,70.68481445
2022-11-16T12:51:32.207Z,70.07446289
2022-11-16T12:52:33.442Z,70.27587891
2022-11-16T12:53:34.224Z,69.97070313
2022-11-16T12:54:34.920Z,70.3125
2022-11-16T12:55:35.626Z,70.37963867
2022-11-16T12:56:37.012Z,70.58105469
2022-11-16T12:57:37.704Z,70.68481445
2022-11-16T12:58:38.489Z,70.17822266
2022-11-16T12:59:38.636Z,70.48339844
2022-11-16T13:00:39.344Z,70.27587891
2022-11-16T13:01:39.995Z,70.58105469
2022-11-16T13:02:40.764Z,70.48339844
2022-11-16T13:03:42.238Z,70.07446289
2022-11-16T13:04:43.410Z,70.27587891
2022-11-16T13:05:43.847Z,69.97070313
2022-11-16T13:06:45.081Z,70.37963867
2022-11-16T13:07:46.797Z,70.58105469
2022-11-16T13:08:47.494Z,70.58105469
2022-11-16T13:09:48.761Z,69.32983398
2022-11-16T13:10:49.179Z,68.61572266
2022-11-16T13:11:49.646Z,68.01147461
2022-11-16T13:12:52.686Z,67.97485352
2022-11-16T13:13:53.566Z,67.46826172
2022-11-16T13:14:52.453Z,66.08276367
2022-11-16T13:16:23.212Z,65.27099609
2022-11-16T13:17:24.738Z,65.44799805
2022-11-16T13:18:25.450Z,65.0390625
2022-11-16T13:19:26.887Z,64.5324707
2022-11-16T13:20:29.871Z,64.91088867
2022-11-16T13:21:30.319Z,64.27001953
2022-11-16T13:22:30.767Z,63.96484375
2022-11-16T13:23:31.787Z,63.32397461
2022-11-16T13:24:33.089Z,63.12255859
2022-11-16T13:25:33.803Z,62.71972656
2022-11-16T13:26:34.265Z,61.70654297
2022-11-16T13:27:35.775Z,62.03613281
2022-11-16T13:28:36.620Z,62.24365234
2022-11-16T13:29:36.800Z,62.64648438
2022-11-16T13:30:37.519Z,62.64648438
2022-11-16T13:31:38.331Z,62.57324219
2022-11-16T13:32:38.910Z,62.87841797
2022-11-16T13:33:39.378Z,63.01269531
2022-11-16T13:34:40.011Z,63.21411133
2022-11-16T13:35:40.870Z,63.01269531
2022-11-16T13:36:42.412Z,63.11035156
2022-11-16T13:37:43.004Z,63.31787109
2022-11-16T13:38:44.423Z,63.95263672
2022-11-16T13:39:44.979Z,64.12963867
2022-11-16T13:40:45.629Z,64.02587891
2022-11-16T13:41:46.385Z,63.92211914
2022-11-16T13:42:47.034Z,63.72070313
2022-11-16T13:43:47.433Z,63.72070313
2022-11-16T13:44:51.539Z,64.05639648
2022-11-16T13:45:48.550Z,64.15405273
2022-11-16T13:46:56.133Z,64.2578125
2022-11-16T13:47:50.715Z,64.69726563
2022-11-16T13:48:51.660Z,65.30151367
2022-11-16T13:50:22.618Z,65.60668945
2022-11-16T13:51:23.198Z,65.94238281
2022-11-16T13:52:28.754Z,66.04614258
2022-11-16T13:54:25.120Z,66.14990234
2022-11-16T13:54:46.134Z,66.35131836
2022-11-16T13:55:26.650Z,66.65649414
2022-11-16T13:56:29.381Z,66.55273438
2022-11-16T13:57:28.336Z,66.45507813
2022-11-16T13:58:29.043Z,66.45507813
2022-11-16T13:59:30.394Z,66.68701172
2022-11-16T14:00:30.915Z,66.9921875
2022-11-16T14:01:31.518Z,67.19360352
2022-11-16T14:02:31.938Z,67.63305664
2022-11-16T14:03:32.749Z,67.73681641
2022-11-16T14:04:33.111Z,68.13964844
2022-11-16T14:05:34.299Z,68.34716797
2022-11-16T14:06:34.907Z,68.34716797
2022-11-16T14:07:36.170Z,68.75
2022-11-16T14:08:36.896Z,68.65234375
2022-11-16T14:09:37.644Z,68.98803711
2022-11-16T14:10:39.215Z,69.09179688
2022-11-16T14:11:39.725Z,69.26269531
2022-11-16T14:12:40.149Z,69.09179688
2022-11-16T14:13:41.040Z,69.18945313
2022-11-16T14:14:43.456Z,69.39697266
2022-11-16T14:15:44.181Z,69.49462891
2022-11-16T14:16:44.805Z,69.36035156
2022-11-16T14:17:45.245Z,69.36035156
2022-11-16T14:18:45.862Z,69.26269531
2022-11-16T14:19:47.560Z,68.78662109
2022-11-16T14:20:47.976Z,68.85375977
2022-11-16T14:21:48.656Z,68.98803711
2022-11-16T14:22:49.167Z,69.09179688
2022-11-16T14:23:49.637Z,69.29321289
2022-11-16T14:24:50.257Z,69.29321289
2022-11-16T14:25:51.366Z,69.18945313
2022-11-16T14:27:27.751Z,69.29321289
2022-11-16T14:28:23.372Z,69.49462891
2022-11-16T14:29:23.834Z,69.59838867
2022-11-16T14:30:24.310Z,69.49462891
2022-11-16T14:31:24.800Z,69.39697266
2022-11-16T14:32:25.308Z,69.49462891
2022-11-16T14:33:25.750Z,69.49462891
2022-11-16T14:34:26.191Z,69.59838867
2022-11-16T14:35:27.230Z,69.70214844
2022-11-16T14:36:27.725Z,69.49462891
2022-11-16T14:37:28.216Z,69.39697266
2022-11-16T14:38:28.701Z,69.59838867
2022-11-16T14:39:29.659Z,69.79980469
2022-11-16T14:40:30.090Z,70.00732422
2022-11-16T14:41:30.589Z,70.20874023
2022-11-16T14:42:38.224Z,70.51391602
2022-11-16T14:43:31.788Z,70.71533203
2022-11-16T14:44:32.022Z,71.22802734
2022-11-16T14:45:33.136Z,71.42944336
2022-11-16T14:46:33.587Z,71.63696289
2022-11-16T14:47:34.967Z,71.63696289
2022-11-16T14:48:35.463Z,71.63696289
2022-11-16T14:49:35.948Z,71.63696289
2022-11-16T14:50:40.760Z,71.32568359
2022-11-16T14:51:37.435Z,71.32568359
2022-11-16T14:52:38.019Z,71.42944336
2022-11-16T14:53:38.778Z,71.63696289
2022-11-16T14:54:39.040Z,71.83837891
2022-11-16T14:55:40.172Z,71.94213867
2022-11-16T14:56:40.603Z,72.03979492
2022-11-16T14:57:42.096Z,72.24731445
2022-11-16T14:58:42.576Z,72.3449707
2022-11-16T14:59:43.033Z,72.3449707
2022-11-16T15:00:43.472Z,72.65014648
2022-11-16T15:01:43.890Z,72.75390625
2022-11-16T15:02:49.461Z,72.65014648
2022-11-16T15:03:45.006Z,72.75390625
2022-11-16T15:04:45.505Z,72.65014648
2022-11-16T15:05:46.045Z,72.65014648
2022-11-16T15:06:46.497Z,72.75390625
2022-11-16T15:07:47.668Z,72.44873047
2022-11-16T15:08:48.110Z,72.75390625
2022-11-16T15:09:48.567Z,72.99194336
2022-11-16T15:10:52.346Z,73.09570313
2022-11-16T15:11:49.529Z,72.85766602
2022-11-16T15:12:49.948Z,72.99194336
2022-11-16T15:14:21.044Z,73.09570313
2022-11-16T15:15:21.535Z,73.05908203
2022-11-16T15:16:21.993Z,73.09570313
2022-11-16T15:17:27.190Z,73.19335938
2022-11-16T15:18:24.016Z,73.29711914
2022-11-16T15:19:24.944Z,73.29711914
2022-11-16T15:20:25.444Z,73.19335938
2022-11-16T15:21:25.930Z,73.09570313
2022-11-16T15:22:26.404Z,73.09570313
2022-11-16T15:23:30.422Z,73.09570313
2022-11-16T15:24:31.017Z,72.78442383
2022-11-16T15:25:28.531Z,72.78442383
2022-11-16T15:26:29.154Z,72.99194336
2022-11-16T15:27:30.486Z,73.19335938
2022-11-16T15:28:30.998Z,73.19335938
2022-11-16T15:29:31.360Z,73.09570313
2022-11-16T15:30:31.779Z,73.29711914
2022-11-16T15:31:32.278Z,73.49853516
2022-11-16T15:32:32.778Z,73.70605469
2022-11-16T15:33:33.563Z,73.9074707
2022-11-16T15:34:33.674Z,74.01123047
2022-11-16T15:35:34.087Z,73.70605469
2022-11-16T15:36:35.439Z,73.49853516
2022-11-16T15:37:35.868Z,73.60229492
2022-11-16T15:38:36.516Z,73.80371094
2022-11-16T15:39:37.938Z,74.04174805
2022-11-16T15:40:38.358Z,74.24926758
2022-11-16T15:41:38.785Z,74.04174805
2022-11-16T15:42:39.302Z,74.04174805
2022-11-16T15:43:49.772Z,73.84033203
2022-11-16T15:44:40.313Z,73.84033203
2022-11-16T15:45:40.805Z,73.9440918
2022-11-16T15:46:41.228Z,74.04174805
2022-11-16T15:47:41.750Z,74.14550781
2022-11-16T15:48:43.234Z,74.24926758
2022-11-16T15:49:43.741Z,74.24926758
2022-11-16T15:50:44.231Z,74.58496094
2022-11-16T15:51:44.663Z,74.6887207
2022-11-16T15:52:45.105Z,74.6887207
2022-11-16T15:53:45.555Z,74.79248047
2022-11-16T15:54:46.031Z,74.99389648
2022-11-16T15:55:47.241Z,75.29907227
2022-11-16T15:56:47.644Z,75.60424805
2022-11-16T15:57:48.980Z,75.91552734
2022-11-16T15:58:49.489Z,76.35498047
2022-11-16T16:00:20.475Z,76.5625
2022-11-16T16:01:21.007Z,76.76391602
2022-11-16T16:02:21.391Z,76.86767578
2022-11-16T16:03:21.860Z,76.76391602
2022-11-16T16:04:22.584Z,76.5625
2022-11-16T16:05:24.176Z,76.5625
2022-11-16T16:06:23.646Z,76.66015625
2022-11-16T16:07:24.093Z,76.90429688
2022-11-16T16:08:25.236Z,77.00195313
2022-11-16T16:09:25.709Z,77.10571289
2022-11-16T16:10:26.276Z,77.30712891
2022-11-16T16:11:27.184Z,77.10571289
2022-11-16T16:12:27.241Z,76.90429688
2022-11-16T16:13:27.708Z,77.00195313
2022-11-16T16:14:28.210Z,76.90429688
2022-11-16T16:15:28.731Z,76.90429688
2022-11-16T16:16:29.178Z,77.14233398
2022-11-16T16:17:29.613Z,77.03857422
2022-11-16T16:18:30.048Z,76.93481445
2022-11-16T16:19:31.471Z,76.93481445
2022-11-16T16:20:31.857Z,77.03857422
2022-11-16T16:21:32.295Z,77.14233398
2022-11-16T16:22:32.802Z,77.55126953
2022-11-16T16:23:33.691Z,77.75268555
2022-11-16T16:24:33.699Z,77.75268555
2022-11-16T16:25:34.946Z,77.85644531
2022-11-16T16:26:35.571Z,78.05786133
2022-11-16T16:27:36.168Z,78.57055664
2022-11-16T16:28:37.150Z,78.77197266
2022-11-16T16:29:37.619Z,78.80859375
2022-11-16T16:30:38.009Z,79.01611328
2022-11-16T16:31:38.440Z,79.2175293
2022-11-16T16:32:38.864Z,79.42504883
2022-11-16T16:33:39.316Z,79.62646484
2022-11-16T16:34:42.389Z,79.73022461
2022-11-16T16:35:40.218Z,79.93164063
2022-11-16T16:36:40.635Z,80.03540039
2022-11-16T16:37:41.196Z,80.24291992
2022-11-16T16:38:42.176Z,80.27954102
2022-11-16T16:39:42.966Z,80.27954102
2022-11-16T16:40:43.406Z,80.37719727
2022-11-16T16:41:43.859Z,80.27954102
2022-11-16T16:42:44.969Z,80.37719727
2022-11-16T16:43:45.364Z,80.48095703
2022-11-16T16:44:45.779Z,80.5847168
2022-11-16T16:45:46.257Z,80.68847656
2022-11-16T16:46:46.666Z,80.78613281
2022-11-16T16:47:47.144Z,80.88989258
2022-11-16T16:48:48.155Z,80.99365234
2022-11-16T16:49:48.588Z,80.82885742
2022-11-16T16:50:49.477Z,80.82885742
2022-11-16T16:52:20.259Z,80.92651367
2022-11-16T16:53:20.659Z,80.92651367
2022-11-16T16:54:21.081Z,81.03027344
2022-11-16T16:55:22.147Z,81.03027344
2022-11-16T16:56:22.704Z,81.03027344
2022-11-16T16:57:23.180Z,81.1340332
2022-11-16T16:58:23.609Z,81.1340332
2022-11-16T16:59:23.992Z,81.1340332
2022-11-16T17:00:25.168Z,81.1340332
2022-11-16T17:01:25.634Z,81.27441406
2022-11-16T17:02:26.061Z,81.1706543
2022-11-16T17:03:26.525Z,81.37817383
2022-11-16T17:04:27.028Z,81.37817383
2022-11-16T17:05:28.149Z,81.47583008
2022-11-16T17:06:28.581Z,81.47583008
2022-11-16T17:07:29.981Z,81.37817383
2022-11-16T17:08:30.457Z,81.37817383
2022-11-16T17:09:31.462Z,81.47583008
2022-11-16T17:10:31.883Z,81.57958984
2022-11-16T17:11:32.334Z,81.57958984
2022-11-16T17:12:32.755Z,81.37817383
2022-11-16T17:13:33.360Z,81.37817383
2022-11-16T17:14:33.601Z,81.1706543
2022-11-16T17:15:34.018Z,81.06689453
2022-11-16T17:16:34.458Z,81.06689453
2022-11-16T17:17:34.903Z,81.1706543
2022-11-16T17:18:35.970Z,81.27441406
2022-11-16T17:19:36.347Z,81.37817383
2022-11-16T17:20:40.207Z,81.47583008
2022-11-16T17:21:38.099Z,81.47583008
2022-11-16T17:22:38.538Z,81.61621094
2022-11-16T17:23:39.013Z,81.92749023
2022-11-16T17:24:39.438Z,82.02514648
2022-11-16T17:25:39.868Z,82.12890625
2022-11-16T17:26:41.177Z,82.02514648
2022-11-16T17:27:41.628Z,82.12890625
2022-11-16T17:28:42.699Z,82.23266602
2022-11-16T17:29:43.134Z,82.43408203
2022-11-16T17:30:43.570Z,82.5378418
2022-11-16T17:31:44.013Z,82.64160156
2022-11-16T17:32:44.424Z,82.74536133
2022-11-16T17:33:44.895Z,82.84301758
2022-11-16T17:34:45.272Z,82.74536133
2022-11-16T17:35:45.690Z,82.74536133
2022-11-16T17:36:46.695Z,82.74536133
2022-11-16T17:37:47.113Z,82.64160156
2022-11-16T17:38:48.196Z,82.74536133
2022-11-16T17:40:19.205Z,82.84301758
2022-11-16T17:41:20.165Z,82.84301758
2022-11-16T17:42:20.580Z,82.84301758
2022-11-16T17:43:21.036Z,82.84301758
2022-11-16T17:44:22.086Z,82.74536133
2022-11-16T17:45:21.856Z,82.64160156
2022-11-16T17:46:22.317Z,82.74536133
2022-11-16T17:47:22.784Z,82.78198242
2022-11-16T17:48:23.226Z,82.78198242
2022-11-16T17:49:24.488Z,82.88574219
2022-11-16T17:50:24.898Z,82.88574219
2022-11-16T17:51:25.357Z,82.88574219
2022-11-16T17:52:25.778Z,82.78198242
2022-11-16T17:53:31.264Z,82.67822266
2022-11-16T17:54:26.641Z,82.57446289
2022-11-16T17:55:27.674Z,82.67822266
2022-11-16T17:56:28.089Z,82.78198242
2022-11-16T17:57:28.506Z,82.78198242
2022-11-16T17:58:29.467Z,82.88574219
2022-11-16T17:59:30.226Z,82.88574219
2022-11-16T18:00:30.347Z,82.98339844
2022-11-16T18:01:30.848Z,82.98339844
2022-11-16T18:02:31.185Z,82.98339844
2022-11-16T18:03:31.792Z,82.92236328
2022-11-16T18:04:32.071Z,82.92236328
2022-11-16T18:05:32.431Z,82.81860352
2022-11-16T18:06:32.846Z,82.71484375
2022-11-16T18:07:33.368Z,82.81860352
2022-11-16T18:08:34.449Z,82.92236328
2022-11-16T18:09:34.911Z,82.71484375
2022-11-16T18:10:35.320Z,82.71484375
2022-11-16T18:11:35.729Z,82.71484375
2022-11-16T18:12:36.952Z,82.81860352
2022-11-16T18:13:37.609Z,82.81860352
2022-11-16T18:14:37.853Z,82.92236328
2022-11-16T18:15:42.341Z,82.92236328
2022-11-16T18:16:38.678Z,83.02612305
2022-11-16T18:17:39.955Z,83.12988281
2022-11-16T18:18:40.961Z,83.16650391
2022-11-16T18:19:41.524Z,83.16650391
2022-11-16T18:20:41.804Z,83.36791992
2022-11-16T18:21:42.241Z,83.47167969
2022-11-16T18:22:42.725Z,83.47167969
2022-11-16T18:23:43.158Z,83.36791992
2022-11-16T18:24:43.607Z,83.36791992
2022-11-16T18:25:44.004Z,83.16650391
2022-11-16T18:26:45.212Z,83.16650391
2022-11-16T18:27:45.648Z,83.06274414
2022-11-16T18:28:46.997Z,83.06274414
2022-11-16T18:29:47.462Z,83.16650391
2022-11-16T18:30:48.953Z,82.95898438
2022-11-16T18:32:19.585Z,82.86132813
2022-11-16T18:33:20.000Z,82.75756836
2022-11-16T18:34:20.446Z,82.86132813
2022-11-16T18:35:20.888Z,82.95898438
2022-11-16T18:36:21.257Z,82.86132813
2022-11-16T18:37:21.700Z,82.95898438
2022-11-16T18:38:22.111Z,83.06274414
2022-11-16T18:39:24.144Z,83.16650391
2022-11-16T18:40:24.586Z,83.27026367
2022-11-16T18:41:24.992Z,83.16650391
2022-11-16T18:42:25.403Z,83.16650391
2022-11-16T18:43:25.840Z,83.16650391
2022-11-16T18:44:26.272Z,83.30688477
2022-11-16T18:45:27.852Z,83.5144043